createdAt,value
2018-05-29T00:01:00.063Z,0.00
2018-05-29T00:02:06.571Z,0.00
2018-05-29T00:03:13.108Z,0.00
2018-05-29T00:04:19.645Z,0.00
2018-05-29T00:05:27.160Z,0.00
2018-05-29T00:06:32.721Z,0.00
2018-05-29T00:07:39.222Z,0.00
2018-05-29T00:08:45.753Z,0.00
2018-05-29T00:09:52.303Z,0.00
2018-05-29T00:10:58.835Z,0.00
2018-05-29T00:12:05.322Z,0.00
2018-05-29T00:13:11.851Z,0.00
2018-05-29T00:14:18.854Z,0.00
2018-05-29T00:15:25.394Z,0.00
2018-05-29T00:16:31.425Z,0.00
2018-05-29T00:17:37.913Z,0.00
2018-05-29T00:18:44.418Z,0.00
2018-05-29T00:19:50.935Z,0.00
2018-05-29T00:20:57.477Z,0.00
2018-05-29T00:22:03.965Z,0.00
2018-05-29T00:23:10.577Z,0.00
2018-05-29T00:24:16.986Z,0.00
2018-05-29T00:25:23.492Z,0.00
2018-05-29T00:26:30.030Z,0.00
2018-05-29T00:27:36.511Z,0.00
2018-05-29T00:28:43.023Z,0.00
2018-05-29T00:29:50.028Z,0.00
2018-05-29T00:30:56.066Z,0.00
2018-05-29T00:32:02.566Z,0.00
2018-05-29T00:33:09.601Z,0.00
2018-05-29T00:34:16.090Z,0.00
2018-05-29T00:35:22.597Z,0.00
2018-05-29T00:36:28.638Z,0.00
2018-05-29T00:37:35.128Z,0.00
2018-05-29T00:38:42.126Z,0.00
2018-05-29T00:39:48.146Z,0.00
2018-05-29T00:40:54.664Z,0.00
2018-05-29T00:42:01.140Z,0.00
2018-05-29T00:43:07.655Z,0.00
2018-05-29T00:44:14.151Z,0.00
2018-05-29T00:45:20.651Z,0.00
2018-05-29T00:46:27.172Z,0.00
2018-05-29T00:47:33.638Z,0.00
2018-05-29T00:48:40.156Z,0.00
2018-05-29T00:49:47.130Z,0.00
2018-05-29T00:50:53.170Z,0.00
2018-05-29T00:51:59.643Z,0.00
2018-05-29T00:53:06.610Z,0.00
2018-05-29T00:54:12.614Z,0.00
2018-05-29T00:55:19.113Z,0.00
2018-05-29T00:56:25.628Z,0.00
2018-05-29T00:57:32.094Z,0.00
2018-05-29T00:58:39.077Z,0.00
2018-05-29T00:59:45.071Z,0.00
2018-05-29T01:00:51.604Z,0.00
2018-05-29T01:01:58.068Z,0.00
2018-05-29T01:03:04.549Z,0.00
2018-05-29T01:04:11.046Z,0.00
2018-05-29T01:05:17.545Z,0.00
2018-05-29T01:06:24.056Z,0.00
2018-05-29T01:07:31.014Z,0.00
2018-05-29T01:08:37.026Z,0.00
2018-05-29T01:09:44.023Z,0.00
2018-05-29T01:10:50.037Z,0.00
2018-05-29T01:11:56.516Z,0.00
2018-05-29T01:13:02.998Z,0.00
2018-05-29T01:14:09.503Z,0.00
2018-05-29T01:15:16.007Z,0.00
2018-05-29T01:16:22.518Z,0.00
2018-05-29T01:17:30.464Z,0.00
2018-05-29T01:18:35.971Z,0.00
2018-05-29T01:19:41.982Z,0.00
2018-05-29T01:20:48.992Z,0.00
2018-05-29T01:21:55.525Z,0.00
2018-05-29T01:23:01.544Z,0.00
2018-05-29T01:24:08.460Z,0.00
2018-05-29T01:25:14.447Z,0.00
2018-05-29T01:26:21.547Z,0.00
2018-05-29T01:27:27.919Z,0.00
2018-05-29T01:28:33.921Z,0.00
2018-05-29T01:29:40.904Z,0.00
2018-05-29T01:30:46.915Z,0.00
2018-05-29T01:31:53.469Z,0.00
2018-05-29T01:33:00.397Z,0.00
2018-05-29T01:34:06.413Z,0.00
2018-05-29T01:35:12.897Z,0.00
2018-05-29T01:36:19.910Z,0.00
2018-05-29T01:37:25.890Z,0.00
2018-05-29T01:38:32.387Z,0.00
2018-05-29T01:39:38.885Z,0.00
2018-05-29T01:40:45.375Z,0.00
2018-05-29T01:41:52.388Z,0.00
2018-05-29T01:42:58.365Z,0.00
2018-05-29T01:44:04.879Z,0.00
2018-05-29T01:45:12.859Z,0.00
2018-05-29T01:46:17.891Z,0.00
2018-05-29T01:47:24.871Z,0.00
2018-05-29T01:48:31.370Z,0.00
2018-05-29T01:49:37.382Z,0.00
2018-05-29T01:50:43.875Z,0.00
2018-05-29T01:51:50.400Z,0.00
2018-05-29T01:52:56.890Z,0.00
2018-05-29T01:54:03.367Z,0.00
2018-05-29T01:55:10.377Z,0.00
2018-05-29T01:56:16.894Z,0.00
2018-05-29T01:57:23.373Z,0.00
2018-05-29T01:58:29.876Z,0.00
2018-05-29T01:59:35.876Z,0.00
2018-05-29T02:00:42.381Z,0.00
2018-05-29T02:01:48.900Z,0.00
2018-05-29T02:02:55.390Z,0.00
2018-05-29T02:04:01.890Z,0.00
2018-05-29T02:05:08.890Z,0.00
2018-05-29T02:06:14.911Z,0.00
2018-05-29T02:07:21.385Z,0.00
2018-05-29T02:08:27.888Z,0.00
2018-05-29T02:09:34.391Z,0.00
2018-05-29T02:10:41.385Z,0.00
2018-05-29T02:11:47.905Z,0.00
2018-05-29T02:12:53.889Z,0.00
2018-05-29T02:14:00.350Z,0.00
2018-05-29T02:15:06.846Z,0.00
2018-05-29T02:16:13.845Z,0.00
2018-05-29T02:17:21.311Z,0.00
2018-05-29T02:18:26.794Z,0.00
2018-05-29T02:19:32.785Z,0.00
2018-05-29T02:20:39.795Z,0.00
2018-05-29T02:21:45.773Z,0.00
2018-05-29T02:22:52.225Z,0.00
2018-05-29T02:23:58.714Z,0.00
2018-05-29T02:25:05.686Z,0.00
2018-05-29T02:26:11.688Z,0.00
2018-05-29T02:27:18.136Z,0.00
2018-05-29T02:28:24.606Z,0.00
2018-05-29T02:29:31.098Z,0.00
2018-05-29T02:30:37.565Z,0.00
2018-05-29T02:31:44.551Z,0.00
2018-05-29T02:32:51.015Z,0.00
2018-05-29T02:33:56.986Z,0.00
2018-05-29T02:35:03.542Z,0.00
2018-05-29T02:36:10.463Z,0.00
2018-05-29T02:37:16.440Z,0.00
2018-05-29T02:38:23.393Z,0.00
2018-05-29T02:39:29.401Z,0.00
2018-05-29T02:40:35.863Z,0.00
2018-05-29T02:41:42.858Z,0.00
2018-05-29T02:42:48.841Z,0.00
2018-05-29T02:43:55.311Z,0.00
2018-05-29T02:45:02.288Z,0.00
2018-05-29T02:46:08.297Z,0.00
2018-05-29T02:47:14.765Z,0.00
2018-05-29T02:48:21.247Z,0.00
2018-05-29T02:49:28.223Z,0.00
2018-05-29T02:50:34.224Z,0.00
2018-05-29T02:51:41.235Z,0.00
2018-05-29T02:52:47.196Z,0.00
2018-05-29T02:53:54.156Z,0.00
2018-05-29T02:55:00.639Z,0.00
2018-05-29T02:56:06.628Z,0.00
2018-05-29T02:57:13.144Z,0.00
2018-05-29T02:58:19.596Z,0.00
2018-05-29T02:59:26.076Z,0.00
2018-05-29T03:00:33.067Z,0.00
2018-05-29T03:01:39.074Z,0.00
2018-05-29T03:02:45.525Z,0.00
2018-05-29T03:03:52.210Z,0.00
2018-05-29T03:04:58.489Z,0.00
2018-05-29T03:06:05.975Z,0.00
2018-05-29T03:07:11.553Z,0.00
2018-05-29T03:08:17.935Z,0.00
2018-05-29T03:09:24.432Z,0.00
2018-05-29T03:10:31.401Z,0.00
2018-05-29T03:11:37.910Z,0.00
2018-05-29T03:12:43.870Z,0.00
2018-05-29T03:13:50.542Z,5.63
2018-05-29T03:14:56.835Z,5.63
2018-05-29T03:16:03.320Z,5.63
2018-05-29T03:17:10.317Z,5.63
2018-05-29T03:18:16.775Z,5.63
2018-05-29T03:19:23.277Z,5.63
2018-05-29T03:20:29.259Z,5.63
2018-05-29T03:21:35.763Z,5.63
2018-05-29T03:22:42.218Z,11.25
2018-05-29T03:23:48.700Z,11.25
2018-05-29T03:24:55.672Z,11.25
2018-05-29T03:26:02.170Z,11.25
2018-05-29T03:27:08.172Z,11.25
2018-05-29T03:28:14.638Z,16.88
2018-05-29T03:29:21.638Z,16.88
2018-05-29T03:30:27.618Z,16.88
2018-05-29T03:31:34.140Z,16.88
2018-05-29T03:32:40.607Z,16.88
2018-05-29T03:33:47.090Z,22.50
2018-05-29T03:34:54.061Z,22.50
2018-05-29T03:36:00.062Z,22.50
2018-05-29T03:37:06.567Z,22.50
2018-05-29T03:38:13.041Z,28.13
2018-05-29T03:39:20.037Z,28.13
2018-05-29T03:40:26.028Z,28.13
2018-05-29T03:41:32.536Z,33.75
2018-05-29T03:42:39.519Z,33.75
2018-05-29T03:43:45.501Z,33.75
2018-05-29T03:44:51.985Z,39.38
2018-05-29T03:45:58.490Z,39.38
2018-05-29T03:47:05.001Z,39.38
2018-05-29T03:48:11.964Z,39.38
2018-05-29T03:49:17.954Z,45.00
2018-05-29T03:50:24.944Z,45.00
2018-05-29T03:51:30.968Z,45.00
2018-05-29T03:52:37.535Z,50.63
2018-05-29T03:53:43.932Z,50.63
2018-05-29T03:54:50.428Z,50.63
2018-05-29T03:55:56.941Z,50.63
2018-05-29T03:57:03.438Z,56.25
2018-05-29T03:58:09.908Z,56.25
2018-05-29T03:59:17.411Z,61.88
2018-05-29T04:00:22.904Z,61.88
2018-05-29T04:01:29.437Z,61.88
2018-05-29T04:02:35.904Z,67.50
2018-05-29T04:03:42.891Z,67.50
2018-05-29T04:04:48.889Z,73.13
2018-05-29T04:05:55.407Z,73.13
2018-05-29T04:07:02.410Z,73.13
2018-05-29T04:08:08.903Z,78.75
2018-05-29T04:09:16.431Z,78.75
2018-05-29T04:10:21.409Z,78.75
2018-05-29T04:11:27.915Z,84.38
2018-05-29T04:12:34.419Z,84.38
2018-05-29T04:13:40.912Z,84.38
2018-05-29T04:14:47.417Z,90.00
2018-05-29T04:15:53.995Z,90.00
2018-05-29T04:17:00.508Z,90.00
2018-05-29T04:18:07.527Z,95.63
2018-05-29T04:19:13.524Z,95.63
2018-05-29T04:20:19.981Z,95.63
2018-05-29T04:21:26.511Z,101.25
2018-05-29T04:22:33.547Z,101.25
2018-05-29T04:23:39.484Z,101.25
2018-05-29T04:24:45.991Z,106.88
2018-05-29T04:25:52.493Z,106.88
2018-05-29T04:26:59.024Z,106.88
2018-05-29T04:28:05.998Z,112.50
2018-05-29T04:29:12.515Z,112.50
2018-05-29T04:30:18.524Z,112.50
2018-05-29T04:31:25.044Z,112.50
2018-05-29T04:32:32.058Z,118.13
2018-05-29T04:33:38.063Z,118.13
2018-05-29T04:34:45.065Z,118.13
2018-05-29T04:35:51.573Z,123.75
2018-05-29T04:36:57.611Z,123.75
2018-05-29T04:38:04.116Z,123.75
2018-05-29T04:39:10.809Z,129.38
2018-05-29T04:40:17.129Z,129.38
2018-05-29T04:41:24.137Z,129.38
2018-05-29T04:42:30.683Z,135.00
2018-05-29T04:43:37.214Z,135.00
2018-05-29T04:44:43.192Z,135.00
2018-05-29T04:45:49.720Z,140.63
2018-05-29T04:46:56.275Z,140.63
2018-05-29T04:48:02.758Z,140.63
2018-05-29T04:49:09.284Z,146.25
2018-05-29T04:50:15.800Z,146.25
2018-05-29T04:51:22.327Z,146.25
2018-05-29T04:52:28.916Z,146.25
2018-05-29T04:53:35.380Z,151.88
2018-05-29T04:54:41.907Z,151.88
2018-05-29T04:55:48.474Z,157.50
2018-05-29T04:56:54.987Z,157.50
2018-05-29T04:58:01.512Z,157.50
2018-05-29T04:59:08.037Z,163.13
2018-05-29T05:00:14.564Z,157.50
2018-05-29T05:01:21.095Z,163.13
2018-05-29T05:02:27.663Z,163.13
2018-05-29T05:03:34.673Z,163.13
2018-05-29T05:04:40.720Z,168.75
2018-05-29T05:05:47.258Z,168.75
2018-05-29T05:06:54.302Z,174.38
2018-05-29T05:08:00.329Z,174.38
2018-05-29T05:09:06.883Z,174.38
2018-05-29T05:10:13.923Z,180.00
2018-05-29T05:11:20.466Z,180.00
2018-05-29T05:12:27.028Z,185.63
2018-05-29T05:13:33.058Z,185.63
2018-05-29T05:14:39.611Z,191.25
2018-05-29T05:15:46.153Z,191.25
2018-05-29T05:16:52.745Z,191.25
2018-05-29T05:17:59.768Z,196.88
2018-05-29T05:19:07.314Z,196.88
2018-05-29T05:20:12.948Z,202.50
2018-05-29T05:21:18.944Z,202.50
2018-05-29T05:22:25.534Z,208.13
2018-05-29T05:23:32.077Z,208.13
2018-05-29T05:24:38.624Z,213.75
2018-05-29T05:25:45.191Z,219.38
2018-05-29T05:26:51.781Z,219.38
2018-05-29T05:27:58.825Z,225.00
2018-05-29T05:29:04.901Z,230.63
2018-05-29T05:30:11.466Z,230.63
2018-05-29T05:31:18.049Z,236.25
2018-05-29T05:32:24.664Z,241.88
2018-05-29T05:33:31.697Z,241.88
2018-05-29T05:34:38.788Z,247.50
2018-05-29T05:35:44.372Z,247.50
2018-05-29T05:36:51.561Z,253.13
2018-05-29T05:37:58.546Z,258.75
2018-05-29T05:39:04.136Z,258.75
2018-05-29T05:40:10.727Z,258.75
2018-05-29T05:41:17.813Z,258.75
2018-05-29T05:42:23.941Z,258.75
2018-05-29T05:43:32.009Z,264.38
2018-05-29T05:44:37.127Z,264.38
2018-05-29T05:45:44.203Z,270.00
2018-05-29T05:46:50.357Z,270.00
2018-05-29T05:47:57.424Z,275.63
2018-05-29T05:49:03.521Z,275.63
2018-05-29T05:50:10.141Z,275.63
2018-05-29T05:51:18.231Z,275.63
2018-05-29T05:52:23.877Z,281.25
2018-05-29T05:53:29.954Z,281.25
2018-05-29T05:54:36.580Z,281.25
2018-05-29T05:55:43.178Z,281.25
2018-05-29T05:56:51.308Z,292.50
2018-05-29T05:57:56.411Z,286.88
2018-05-29T05:59:03.039Z,303.75
2018-05-29T06:00:10.170Z,315.00
2018-05-29T06:01:16.772Z,315.00
2018-05-29T06:02:22.932Z,320.63
2018-05-29T06:03:30.029Z,320.63
2018-05-29T06:04:36.153Z,326.25
2018-05-29T06:05:42.791Z,331.88
2018-05-29T06:06:49.914Z,337.50
2018-05-29T06:07:56.078Z,343.13
2018-05-29T06:09:02.700Z,343.13
2018-05-29T06:10:10.829Z,343.13
2018-05-29T06:11:15.982Z,343.13
2018-05-29T06:12:23.133Z,348.75
2018-05-29T06:13:29.269Z,348.75
2018-05-29T06:14:35.916Z,348.75
2018-05-29T06:15:42.575Z,348.75
2018-05-29T06:16:49.206Z,348.75
2018-05-29T06:17:55.892Z,343.13
2018-05-29T06:19:02.522Z,343.13
2018-05-29T06:20:09.168Z,337.50
2018-05-29T06:21:16.310Z,331.88
2018-05-29T06:22:23.002Z,331.88
2018-05-29T06:23:29.155Z,326.25
2018-05-29T06:24:35.805Z,326.25
2018-05-29T06:25:42.473Z,315.00
2018-05-29T06:26:49.637Z,303.75
2018-05-29T06:27:56.312Z,298.13
2018-05-29T06:29:02.967Z,292.50
2018-05-29T06:30:10.127Z,286.88
2018-05-29T06:31:15.814Z,281.25
2018-05-29T06:32:22.689Z,275.63
2018-05-29T06:33:29.145Z,270.00
2018-05-29T06:34:35.814Z,264.38
2018-05-29T06:35:42.486Z,270.00
2018-05-29T06:36:49.151Z,275.63
2018-05-29T06:37:55.842Z,281.25
2018-05-29T06:39:02.981Z,286.88
2018-05-29T06:40:09.159Z,298.13
2018-05-29T06:41:15.831Z,303.75
2018-05-29T06:42:23.032Z,309.38
2018-05-29T06:43:29.161Z,320.63
2018-05-29T06:44:35.846Z,331.88
2018-05-29T06:45:42.518Z,348.75
2018-05-29T06:46:49.198Z,360.00
2018-05-29T06:47:56.445Z,365.63
2018-05-29T06:49:02.555Z,371.25
2018-05-29T06:50:09.246Z,382.50
2018-05-29T06:51:15.936Z,393.75
2018-05-29T06:52:23.155Z,393.75
2018-05-29T06:53:29.391Z,405.00
2018-05-29T06:54:36.046Z,410.63
2018-05-29T06:55:42.749Z,416.25
2018-05-29T06:56:49.537Z,416.25
2018-05-29T06:57:56.698Z,416.25
2018-05-29T06:59:02.890Z,416.25
2018-05-29T07:00:09.609Z,416.25
2018-05-29T07:01:16.339Z,416.25
2018-05-29T07:02:24.078Z,410.63
2018-05-29T07:03:29.776Z,410.63
2018-05-29T07:04:37.006Z,410.63
2018-05-29T07:05:43.241Z,405.00
2018-05-29T07:06:50.453Z,399.38
2018-05-29T07:07:56.717Z,393.75
2018-05-29T07:09:03.529Z,388.13
2018-05-29T07:10:10.669Z,382.50
2018-05-29T07:11:16.896Z,382.50
2018-05-29T07:12:24.145Z,376.88
2018-05-29T07:13:30.382Z,371.25
2018-05-29T07:14:37.148Z,371.25
2018-05-29T07:15:43.848Z,365.63
2018-05-29T07:16:51.090Z,360.00
2018-05-29T07:17:57.353Z,360.00
2018-05-29T07:19:04.077Z,354.38
2018-05-29T07:20:10.815Z,348.75
2018-05-29T07:21:17.571Z,348.75
2018-05-29T07:22:24.839Z,348.75
2018-05-29T07:23:31.066Z,343.13
2018-05-29T07:24:37.829Z,343.13
2018-05-29T07:25:44.562Z,343.13
2018-05-29T07:26:51.300Z,348.75
2018-05-29T07:27:58.073Z,354.38
2018-05-29T07:29:04.799Z,354.38
2018-05-29T07:30:11.557Z,354.38
2018-05-29T07:31:18.321Z,348.75
2018-05-29T07:32:25.086Z,343.13
2018-05-29T07:33:32.317Z,320.63
2018-05-29T07:34:38.585Z,309.38
2018-05-29T07:35:45.822Z,292.50
2018-05-29T07:36:52.081Z,286.88
2018-05-29T07:37:58.853Z,292.50
2018-05-29T07:39:05.611Z,298.13
2018-05-29T07:40:12.363Z,303.75
2018-05-29T07:41:19.607Z,303.75
2018-05-29T07:42:26.388Z,320.63
2018-05-29T07:43:32.626Z,331.88
2018-05-29T07:44:39.379Z,343.13
2018-05-29T07:45:46.627Z,354.38
2018-05-29T07:46:52.907Z,371.25
2018-05-29T07:47:59.702Z,376.88
2018-05-29T07:49:06.930Z,388.13
2018-05-29T07:50:13.218Z,399.38
2018-05-29T07:51:20.993Z,399.38
2018-05-29T07:52:26.807Z,405.00
2018-05-29T07:53:33.601Z,421.88
2018-05-29T07:54:40.366Z,421.88
2018-05-29T07:55:47.479Z,433.13
2018-05-29T07:56:54.472Z,438.75
2018-05-29T07:58:00.809Z,444.38
2018-05-29T07:59:08.084Z,450.00
2018-05-29T08:00:14.415Z,455.63
2018-05-29T08:01:21.236Z,461.25
2018-05-29T08:02:28.082Z,466.88
2018-05-29T08:03:34.886Z,466.88
2018-05-29T08:04:41.733Z,472.50
2018-05-29T08:05:48.542Z,472.50
2018-05-29T08:06:55.382Z,478.13
2018-05-29T08:08:02.239Z,483.75
2018-05-29T08:09:10.066Z,483.75
2018-05-29T08:10:16.400Z,483.75
2018-05-29T08:11:22.750Z,483.75
2018-05-29T08:12:30.127Z,478.13
2018-05-29T08:13:36.947Z,455.63
2018-05-29T08:14:43.313Z,461.25
2018-05-29T08:15:50.161Z,472.50
2018-05-29T08:16:57.018Z,472.50
2018-05-29T08:18:04.083Z,472.50
2018-05-29T08:19:11.220Z,472.50
2018-05-29T08:20:17.586Z,478.13
2018-05-29T08:21:24.439Z,472.50
2018-05-29T08:22:31.333Z,466.88
2018-05-29T08:23:38.674Z,461.25
2018-05-29T08:24:45.046Z,450.00
2018-05-29T08:25:51.906Z,455.63
2018-05-29T08:26:58.773Z,461.25
2018-05-29T08:28:05.671Z,455.63
2018-05-29T08:29:12.515Z,450.00
2018-05-29T08:30:19.392Z,444.38
2018-05-29T08:31:26.770Z,438.75
2018-05-29T08:32:33.664Z,444.38
2018-05-29T08:33:40.506Z,444.38
2018-05-29T08:34:47.394Z,450.00
2018-05-29T08:35:54.257Z,455.63
2018-05-29T08:37:00.640Z,450.00
2018-05-29T08:38:07.549Z,455.63
2018-05-29T08:39:14.414Z,461.25
2018-05-29T08:40:21.304Z,472.50
2018-05-29T08:41:28.152Z,489.38
2018-05-29T08:42:35.062Z,506.25
2018-05-29T08:43:42.421Z,511.88
2018-05-29T08:44:48.820Z,523.13
2018-05-29T08:45:55.691Z,523.13
2018-05-29T08:47:02.596Z,528.75
2018-05-29T08:48:09.499Z,534.38
2018-05-29T08:49:16.366Z,540.00
2018-05-29T08:50:23.260Z,540.00
2018-05-29T08:51:30.168Z,540.00
2018-05-29T08:52:37.579Z,534.38
2018-05-29T08:53:43.958Z,534.38
2018-05-29T08:54:50.865Z,534.38
2018-05-29T08:55:57.764Z,534.38
2018-05-29T08:57:04.671Z,551.25
2018-05-29T08:58:12.093Z,556.88
2018-05-29T08:59:18.966Z,579.38
2018-05-29T09:00:25.881Z,585.00
2018-05-29T09:01:32.789Z,590.63
2018-05-29T09:02:39.230Z,596.25
2018-05-29T09:03:46.118Z,585.00
2018-05-29T09:04:53.531Z,579.38
2018-05-29T09:05:59.954Z,573.75
2018-05-29T09:07:07.356Z,568.13
2018-05-29T09:08:13.799Z,562.50
2018-05-29T09:09:20.702Z,562.50
2018-05-29T09:10:28.115Z,568.13
2018-05-29T09:11:35.023Z,573.75
2018-05-29T09:12:41.567Z,568.13
2018-05-29T09:13:48.367Z,573.75
2018-05-29T09:14:55.282Z,573.75
2018-05-29T09:16:02.698Z,568.13
2018-05-29T09:17:09.108Z,528.75
2018-05-29T09:18:16.042Z,528.75
2018-05-29T09:19:22.951Z,523.13
2018-05-29T09:20:30.359Z,523.13
2018-05-29T09:21:37.255Z,511.88
2018-05-29T09:22:44.196Z,517.50
2018-05-29T09:23:50.595Z,500.63
2018-05-29T09:24:57.509Z,495.00
2018-05-29T09:26:04.468Z,495.00
2018-05-29T09:27:11.841Z,500.63
2018-05-29T09:28:18.269Z,506.25
2018-05-29T09:29:25.165Z,506.25
2018-05-29T09:30:32.581Z,500.63
2018-05-29T09:31:39.524Z,495.00
2018-05-29T09:32:45.942Z,495.00
2018-05-29T09:33:52.834Z,483.75
2018-05-29T09:34:59.756Z,483.75
2018-05-29T09:36:07.163Z,472.50
2018-05-29T09:37:14.080Z,472.50
2018-05-29T09:38:20.521Z,466.88
2018-05-29T09:39:27.428Z,472.50
2018-05-29T09:40:34.323Z,466.88
2018-05-29T09:41:41.240Z,461.25
2018-05-29T09:42:48.179Z,455.63
2018-05-29T09:43:55.593Z,455.63
2018-05-29T09:45:01.996Z,455.63
2018-05-29T09:46:08.913Z,455.63
2018-05-29T09:47:15.840Z,455.63
2018-05-29T09:48:23.798Z,455.63
2018-05-29T09:49:30.165Z,450.00
2018-05-29T09:50:37.096Z,444.38
2018-05-29T09:51:43.516Z,444.38
2018-05-29T09:52:51.579Z,450.00
2018-05-29T09:53:57.364Z,444.38
2018-05-29T09:55:04.783Z,444.38
2018-05-29T09:56:11.712Z,438.75
2018-05-29T09:57:18.139Z,438.75
2018-05-29T09:58:25.091Z,438.75
2018-05-29T09:59:31.983Z,433.13
2018-05-29T10:00:38.906Z,427.50
2018-05-29T10:01:45.862Z,433.13
2018-05-29T10:02:52.774Z,433.13
2018-05-29T10:03:59.671Z,433.13
2018-05-29T10:05:06.590Z,433.13
2018-05-29T10:06:13.515Z,427.50
2018-05-29T10:07:20.449Z,438.75
2018-05-29T10:08:27.384Z,438.75
2018-05-29T10:09:34.285Z,438.75
2018-05-29T10:10:41.702Z,438.75
2018-05-29T10:11:48.142Z,438.75
2018-05-29T10:12:55.086Z,444.38
2018-05-29T10:14:02.010Z,450.00
2018-05-29T10:15:09.551Z,450.00
2018-05-29T10:16:15.922Z,450.00
2018-05-29T10:17:22.788Z,444.38
2018-05-29T10:18:30.254Z,444.38
2018-05-29T10:19:36.665Z,450.00
2018-05-29T10:20:43.600Z,433.13
2018-05-29T10:21:50.601Z,450.00
2018-05-29T10:22:57.522Z,455.63
2018-05-29T10:24:04.426Z,461.25
2018-05-29T10:25:11.378Z,466.88
2018-05-29T10:26:18.322Z,483.75
2018-05-29T10:27:25.276Z,483.75
2018-05-29T10:28:32.238Z,495.00
2018-05-29T10:29:39.175Z,500.63
2018-05-29T10:30:46.127Z,506.25
2018-05-29T10:31:53.598Z,511.88
2018-05-29T10:33:00.064Z,511.88
2018-05-29T10:34:06.994Z,523.13
2018-05-29T10:35:13.962Z,517.50
2018-05-29T10:36:20.912Z,517.50
2018-05-29T10:37:27.874Z,517.50
2018-05-29T10:38:34.862Z,517.50
2018-05-29T10:39:42.296Z,517.50
2018-05-29T10:40:49.259Z,511.88
2018-05-29T10:41:56.233Z,506.25
2018-05-29T10:43:03.230Z,500.63
2018-05-29T10:44:09.666Z,495.00
2018-05-29T10:45:17.138Z,500.63
2018-05-29T10:46:23.599Z,506.25
2018-05-29T10:47:31.051Z,511.88
2018-05-29T10:48:38.059Z,511.88
2018-05-29T10:49:44.517Z,517.50
2018-05-29T10:50:51.996Z,517.50
2018-05-29T10:51:58.469Z,523.13
2018-05-29T10:53:05.563Z,517.50
2018-05-29T10:54:12.427Z,506.25
2018-05-29T10:55:19.418Z,500.63
2018-05-29T10:56:26.907Z,500.63
2018-05-29T10:57:33.389Z,506.25
2018-05-29T10:58:40.408Z,511.88
2018-05-29T10:59:47.884Z,517.50
2018-05-29T11:00:54.384Z,523.13
2018-05-29T11:02:01.414Z,528.75
2018-05-29T11:03:09.957Z,540.00
2018-05-29T11:04:15.536Z,545.63
2018-05-29T11:05:22.669Z,551.25
2018-05-29T11:06:31.351Z,540.00
2018-05-29T11:07:37.126Z,556.88
2018-05-29T11:08:44.434Z,579.38
2018-05-29T11:09:51.741Z,613.13
2018-05-29T11:10:59.621Z,894.38
2018-05-29T11:12:06.540Z,2165.63
2018-05-29T11:13:14.021Z,2711.25
2018-05-29T11:14:21.552Z,2823.75
2018-05-29T11:15:29.543Z,3054.38
2018-05-29T11:16:36.615Z,3121.88
2018-05-29T11:17:44.224Z,2970.00
2018-05-29T11:18:52.882Z,2868.75
2018-05-29T11:20:00.079Z,2908.13
2018-05-29T11:21:07.731Z,3031.88
2018-05-29T11:22:14.944Z,2986.88
2018-05-29T11:23:23.196Z,2863.13
2018-05-29T11:24:30.443Z,2936.25
2018-05-29T11:25:38.226Z,2986.88
2018-05-29T11:26:46.533Z,2981.25
2018-05-29T11:27:54.366Z,2964.38
2018-05-29T11:29:02.241Z,3043.13
2018-05-29T11:30:11.041Z,3026.25
2018-05-29T11:31:17.973Z,3076.88
2018-05-29T11:32:25.812Z,3031.88
2018-05-29T11:33:33.722Z,2981.25
2018-05-29T11:34:41.110Z,3060.00
2018-05-29T11:35:49.027Z,2947.50
2018-05-29T11:36:57.531Z,2840.63
2018-05-29T11:38:05.401Z,2896.88
2018-05-29T11:39:13.367Z,2902.50
2018-05-29T11:40:21.293Z,2919.38
2018-05-29T11:41:28.775Z,2908.13
2018-05-29T11:42:37.244Z,2913.75
2018-05-29T11:43:45.283Z,2806.88
2018-05-29T11:44:53.267Z,2992.50
2018-05-29T11:46:01.280Z,2778.75
2018-05-29T11:47:09.291Z,2700.00
2018-05-29T11:48:17.343Z,2806.88
2018-05-29T11:49:25.395Z,2851.88
2018-05-29T11:50:33.385Z,2851.88
2018-05-29T11:51:41.532Z,2761.88
2018-05-29T11:52:49.497Z,2868.75
2018-05-29T11:53:57.586Z,2880.00
2018-05-29T11:55:05.164Z,2778.75
2018-05-29T11:56:13.742Z,2857.50
2018-05-29T11:57:21.845Z,2790.00
2018-05-29T11:58:29.982Z,2604.38
2018-05-29T11:59:38.080Z,2379.38
2018-05-29T12:00:46.201Z,2238.75
2018-05-29T12:01:54.269Z,1642.50
2018-05-29T12:03:02.293Z,1423.13
2018-05-29T12:04:10.280Z,787.50
2018-05-29T12:05:18.143Z,759.38
2018-05-29T12:06:25.974Z,1530.00
2018-05-29T12:07:33.812Z,1485.00
2018-05-29T12:08:41.597Z,1704.38
2018-05-29T12:09:49.378Z,1558.13
2018-05-29T12:10:57.168Z,1580.63
2018-05-29T12:12:04.964Z,1541.25
2018-05-29T12:13:12.744Z,1603.13
2018-05-29T12:14:20.572Z,1091.25
2018-05-29T12:15:28.296Z,843.75
2018-05-29T12:16:36.011Z,770.63
2018-05-29T12:17:43.690Z,849.38
2018-05-29T12:18:51.466Z,843.75
2018-05-29T12:19:58.937Z,860.63
2018-05-29T12:21:06.524Z,973.13
2018-05-29T12:22:14.161Z,1136.25
2018-05-29T12:23:22.197Z,1220.63
2018-05-29T12:24:29.309Z,1378.13
2018-05-29T12:25:36.877Z,1552.50
2018-05-29T12:26:44.487Z,1805.63
2018-05-29T12:27:52.443Z,1867.50
2018-05-29T12:29:00.839Z,2131.88
2018-05-29T12:30:07.541Z,2188.13
2018-05-29T12:31:15.298Z,2148.75
2018-05-29T12:32:23.053Z,2210.63
2018-05-29T12:33:30.869Z,2323.13
2018-05-29T12:34:38.660Z,2379.38
2018-05-29T12:35:46.498Z,2283.75
2018-05-29T12:36:54.374Z,2233.13
2018-05-29T12:38:02.236Z,2103.75
2018-05-29T12:39:10.133Z,1895.63
2018-05-29T12:40:17.994Z,1704.38
2018-05-29T12:41:25.295Z,1603.13
2018-05-29T12:42:33.600Z,1479.38
2018-05-29T12:43:41.418Z,1265.63
2018-05-29T12:44:48.636Z,1288.13
2018-05-29T12:45:56.870Z,1428.75
2018-05-29T12:47:04.559Z,1721.25
2018-05-29T12:48:12.240Z,1963.13
2018-05-29T12:49:19.970Z,2070.00
2018-05-29T12:50:27.183Z,2413.13
2018-05-29T12:51:34.951Z,2559.38
2018-05-29T12:52:42.744Z,2491.88
2018-05-29T12:53:51.084Z,2514.38
2018-05-29T12:54:58.425Z,2604.38
2018-05-29T12:56:06.796Z,2542.50
2018-05-29T12:57:14.694Z,2576.25
2018-05-29T12:58:22.614Z,2570.63
2018-05-29T12:59:30.580Z,2446.88
2018-05-29T13:00:38.495Z,2463.75
2018-05-29T13:01:46.437Z,2300.63
2018-05-29T13:02:54.366Z,2345.63
2018-05-29T13:04:02.352Z,2238.75
2018-05-29T13:05:10.247Z,2070.00
2018-05-29T13:06:18.162Z,1980.00
2018-05-29T13:07:26.057Z,1878.75
2018-05-29T13:08:33.943Z,1721.25
2018-05-29T13:09:41.827Z,1861.88
2018-05-29T13:10:49.628Z,2013.75
2018-05-29T13:11:58.452Z,2491.88
2018-05-29T13:13:05.317Z,2475.00
2018-05-29T13:14:12.703Z,2520.00
2018-05-29T13:15:21.067Z,2520.00
2018-05-29T13:16:28.962Z,2486.25
2018-05-29T13:17:36.377Z,2705.63
2018-05-29T13:18:44.330Z,2638.13
2018-05-29T13:19:52.728Z,2458.13
2018-05-29T13:21:00.626Z,2250.00
2018-05-29T13:22:08.537Z,2131.88
2018-05-29T13:23:15.907Z,1890.00
2018-05-29T13:24:23.770Z,1603.13
2018-05-29T13:25:32.063Z,1788.75
2018-05-29T13:26:39.816Z,1991.25
2018-05-29T13:27:47.090Z,2041.88
2018-05-29T13:28:54.864Z,2199.38
2018-05-29T13:30:03.085Z,2188.13
2018-05-29T13:31:10.345Z,1991.25
2018-05-29T13:32:18.115Z,1839.38
2018-05-29T13:33:26.341Z,1738.13
2018-05-29T13:34:34.116Z,1395.00
2018-05-29T13:35:41.811Z,1591.88
2018-05-29T13:36:49.029Z,1794.38
2018-05-29T13:37:56.745Z,1856.25
2018-05-29T13:39:04.461Z,1845.00
2018-05-29T13:40:12.641Z,1603.13
2018-05-29T13:41:19.841Z,1383.75
2018-05-29T13:42:27.531Z,1119.38
2018-05-29T13:43:35.163Z,1029.38
2018-05-29T13:44:42.800Z,973.13
2018-05-29T13:45:50.370Z,697.50
2018-05-29T13:46:58.437Z,663.75
2018-05-29T13:48:05.943Z,630.00
2018-05-29T13:49:13.022Z,663.75
2018-05-29T13:50:20.896Z,652.50
2018-05-29T13:51:28.346Z,630.00
2018-05-29T13:52:35.744Z,618.75
2018-05-29T13:53:43.124Z,641.25
2018-05-29T13:54:50.014Z,652.50
2018-05-29T13:55:57.832Z,708.75
2018-05-29T13:57:05.182Z,736.88
2018-05-29T13:58:12.513Z,860.63
2018-05-29T13:59:19.849Z,990.00
2018-05-29T14:00:26.638Z,1170.00
2018-05-29T14:01:34.458Z,1400.63
2018-05-29T14:02:41.782Z,1591.88
2018-05-29T14:03:49.176Z,1845.00
2018-05-29T14:04:56.553Z,2131.88